createdAt,value
2022-11-05T00:00:59.305Z,5.60
2022-11-05T00:03:26.340Z,5.60
2022-11-05T00:05:54.061Z,5.60
2022-11-05T00:08:20.870Z,5.60
2022-11-05T00:10:47.755Z,5.50
2022-11-05T00:16:02.037Z,5.50
2022-11-05T00:18:28.960Z,5.50
2022-11-05T00:20:55.687Z,5.80
2022-11-05T00:23:22.640Z,5.50
2022-11-05T00:28:47.547Z,5.40
2022-11-05T00:34:01.199Z,5.30
2022-11-05T00:38:54.557Z,5.20
2022-11-05T00:41:21.589Z,5.20
2022-11-05T00:46:34.985Z,5.20
2022-11-05T00:49:01.719Z,5.20
2022-11-05T00:51:28.484Z,5.20
2022-11-05T00:53:55.231Z,5.20
2022-11-05T00:56:21.949Z,5.10
2022-11-05T00:58:48.696Z,5.10
2022-11-05T01:01:15.629Z,5.10
2022-11-05T01:03:45.147Z,5.00
2022-11-05T01:06:17.028Z,5.10
2022-11-05T01:08:45.440Z,5.10
2022-11-05T01:11:14.618Z,5.10
2022-11-05T01:13:41.347Z,5.10
2022-11-05T01:16:09.920Z,5.10
2022-11-05T01:21:12.771Z,5.00
2022-11-05T01:23:39.542Z,5.00
2022-11-05T01:28:57.843Z,5.10
2022-11-05T01:31:24.720Z,5.10
2022-11-05T01:33:51.469Z,5.10
2022-11-05T01:36:18.594Z,5.00
2022-11-05T01:38:45.548Z,5.20
2022-11-05T01:41:12.255Z,5.00
2022-11-05T01:46:46.023Z,5.00
2022-11-05T01:49:17.621Z,5.00
2022-11-05T01:51:45.818Z,5.00
2022-11-05T01:54:17.117Z,5.00
2022-11-05T01:56:51.351Z,5.00
2022-11-05T01:59:25.466Z,5.00
2022-11-05T02:04:45.343Z,4.90
2022-11-05T02:07:12.778Z,4.90
2022-11-05T02:09:54.510Z,4.90
2022-11-05T02:15:15.766Z,4.90
2022-11-05T02:17:51.393Z,4.80
2022-11-05T02:21:11.689Z,4.90
2022-11-05T02:27:20.176Z,4.90
2022-11-05T02:33:41.702Z,4.90
2022-11-05T02:36:27.168Z,5.00
2022-11-05T02:39:08.721Z,5.10
2022-11-05T02:45:10.420Z,5.20
2022-11-05T02:48:02.612Z,5.30
2022-11-05T02:50:39.793Z,5.40
2022-11-05T02:53:19.236Z,5.40
2022-11-05T02:56:00.984Z,5.40
2022-11-05T02:58:28.886Z,5.40
2022-11-05T03:00:57.059Z,5.60
2022-11-05T03:03:33.296Z,5.60
2022-11-05T03:06:16.550Z,5.60
2022-11-05T03:09:18.248Z,5.70
2022-11-05T03:12:10.296Z,5.70
2022-11-05T03:15:01.876Z,5.80
2022-11-05T03:17:36.670Z,5.80
2022-11-05T03:22:41.705Z,5.80
2022-11-05T03:28:10.902Z,5.80
2022-11-05T03:33:30.948Z,5.70
2022-11-05T03:36:03.283Z,5.70
2022-11-05T03:38:35.203Z,5.60
2022-11-05T03:43:58.638Z,5.50
2022-11-05T03:49:21.359Z,5.40
2022-11-05T03:51:58.878Z,5.40
2022-11-05T03:54:25.919Z,5.40
2022-11-05T03:57:01.221Z,5.30
2022-11-05T03:59:30.327Z,5.30
2022-11-05T04:01:57.898Z,5.30
2022-11-05T04:07:12.232Z,5.10
2022-11-05T04:12:25.563Z,4.90
2022-11-05T04:14:52.257Z,4.90
2022-11-05T04:17:18.995Z,4.90
2022-11-05T04:19:46.008Z,4.90
2022-11-05T04:22:12.783Z,4.80
2022-11-05T04:24:39.502Z,4.80
2022-11-05T04:27:06.235Z,4.80
2022-11-05T04:29:32.916Z,4.80
2022-11-05T04:31:59.630Z,4.70
2022-11-05T04:34:26.364Z,4.70
2022-11-05T04:36:53.444Z,4.70
2022-11-05T04:39:20.953Z,4.60
2022-11-05T04:41:48.021Z,4.60
2022-11-05T04:44:15.955Z,4.60
2022-11-05T04:46:42.767Z,4.60
2022-11-05T04:49:09.529Z,4.50
2022-11-05T04:51:36.257Z,4.60
2022-11-05T04:54:02.976Z,4.60
2022-11-05T04:56:29.707Z,4.50
2022-11-05T04:58:56.419Z,4.50
2022-11-05T05:01:24.060Z,4.50
2022-11-05T05:03:52.194Z,4.40
2022-11-05T05:06:19.653Z,4.50
2022-11-05T05:08:50.553Z,4.40
2022-11-05T05:11:19.927Z,4.70
2022-11-05T05:13:47.474Z,4.50
2022-11-05T05:16:20.633Z,4.60
2022-11-05T05:18:47.987Z,4.40
2022-11-05T05:24:03.294Z,4.50
2022-11-05T05:29:17.845Z,4.50
2022-11-05T05:34:31.328Z,4.50
2022-11-05T05:39:44.793Z,4.30
2022-11-05T05:44:59.008Z,4.20
2022-11-05T05:47:25.744Z,4.10
2022-11-05T05:49:52.553Z,4.10
2022-11-05T05:52:19.581Z,4.10
2022-11-05T05:54:46.447Z,4.10
2022-11-05T05:57:13.224Z,4.10
2022-11-05T05:59:39.934Z,4.10
2022-11-05T06:02:06.897Z,4.10
2022-11-05T06:04:33.749Z,4.10
2022-11-05T06:07:00.459Z,4.20
2022-11-05T06:09:27.262Z,4.10
2022-11-05T06:14:40.618Z,4.00
2022-11-05T06:17:07.716Z,4.00
2022-11-05T06:19:34.443Z,4.00
2022-11-05T06:22:01.181Z,4.20
2022-11-05T06:24:27.919Z,4.10
2022-11-05T06:26:54.662Z,4.10
2022-11-05T06:29:21.416Z,4.10
2022-11-05T06:31:48.161Z,4.10
2022-11-05T06:34:14.898Z,4.20
2022-11-05T06:36:41.616Z,4.30
2022-11-05T06:39:12.219Z,4.20
2022-11-05T06:42:03.898Z,4.20
2022-11-05T06:44:26.061Z,4.30
2022-11-05T06:46:52.784Z,4.20
2022-11-05T06:49:19.536Z,4.10
2022-11-05T06:51:46.344Z,4.30
2022-11-05T06:54:13.067Z,4.30
2022-11-05T06:56:39.780Z,4.30
2022-11-05T06:59:06.498Z,4.40
2022-11-05T07:01:33.391Z,4.40
2022-11-05T07:04:00.224Z,4.50
2022-11-05T07:06:27.594Z,4.50
2022-11-05T07:08:54.459Z,4.60
2022-11-05T07:11:21.169Z,4.60
2022-11-05T07:13:47.937Z,4.60
2022-11-05T07:16:14.675Z,4.80
2022-11-05T07:18:41.387Z,4.80
2022-11-05T07:21:08.137Z,4.80
2022-11-05T07:23:34.880Z,5.00
2022-11-05T07:26:01.634Z,5.00
2022-11-05T07:28:28.390Z,5.10
2022-11-05T07:30:55.122Z,5.30
2022-11-05T07:36:08.926Z,5.50
2022-11-05T07:41:22.349Z,6.00
2022-11-05T07:46:15.878Z,10.40
2022-11-05T07:48:42.588Z,11.60
2022-11-05T07:53:55.945Z,12.70
2022-11-05T07:56:22.837Z,11.50
2022-11-05T07:58:49.678Z,10.60
2022-11-05T08:01:16.655Z,11.40
2022-11-05T08:03:43.652Z,11.70
2022-11-05T08:06:10.399Z,12.70
2022-11-05T08:08:37.151Z,13.10
2022-11-05T08:11:09.637Z,13.40
2022-11-05T08:13:37.105Z,13.70
2022-11-05T08:16:04.884Z,14.00
2022-11-05T08:18:32.488Z,14.40
2022-11-05T08:21:00.646Z,14.80
2022-11-05T08:23:29.078Z,14.90
2022-11-05T08:28:43.760Z,15.30
2022-11-05T08:31:10.552Z,14.30
2022-11-05T08:33:37.322Z,15.30
2022-11-05T08:36:05.411Z,15.40
2022-11-05T08:38:32.186Z,15.60
2022-11-05T08:40:58.951Z,15.10
2022-11-05T08:43:25.754Z,15.70
2022-11-05T08:45:52.512Z,15.80
2022-11-05T08:48:19.615Z,16.20
2022-11-05T08:50:48.184Z,16.30
2022-11-05T08:53:15.466Z,16.10
2022-11-05T08:55:42.777Z,16.30
2022-11-05T08:58:14.440Z,16.50
2022-11-05T09:03:10.137Z,16.60
2022-11-05T09:05:38.807Z,16.60
2022-11-05T09:08:13.454Z,16.70
2022-11-05T09:10:41.466Z,16.20
2022-11-05T09:13:13.096Z,16.10
2022-11-05T09:15:43.616Z,16.20
2022-11-05T09:18:13.584Z,15.30
2022-11-05T09:20:40.673Z,15.10
2022-11-05T09:23:08.069Z,14.90
2022-11-05T09:25:35.170Z,14.30
2022-11-05T09:28:16.517Z,14.90
2022-11-05T09:30:49.080Z,14.60
2022-11-05T09:33:18.011Z,14.70
2022-11-05T09:38:33.598Z,15.00
2022-11-05T09:41:07.510Z,14.80
2022-11-05T09:43:40.207Z,14.90
2022-11-05T09:49:10.709Z,14.80
2022-11-05T09:51:39.535Z,14.30
2022-11-05T09:54:06.335Z,14.70
2022-11-05T09:56:37.118Z,15.10
2022-11-05T09:59:13.158Z,15.30
2022-11-05T10:01:41.273Z,15.70
2022-11-05T10:07:05.697Z,15.30
2022-11-05T10:09:49.545Z,15.50
2022-11-05T10:12:30.268Z,15.40
2022-11-05T10:15:19.462Z,16.30
2022-11-05T10:20:43.668Z,16.30
2022-11-05T10:26:10.439Z,15.80
2022-11-05T10:31:24.172Z,16.60
2022-11-05T10:33:59.761Z,16.80
2022-11-05T10:36:29.596Z,16.90
2022-11-05T10:39:11.322Z,16.90
2022-11-05T10:41:56.706Z,17.40
2022-11-05T10:50:26.017Z,17.00
2022-11-05T10:55:47.195Z,17.00
2022-11-05T11:01:12.917Z,17.60
2022-11-05T11:04:03.806Z,18.80
2022-11-05T11:06:33.600Z,16.70
2022-11-05T11:09:03.815Z,18.20
2022-11-05T11:11:32.658Z,16.90
2022-11-05T11:14:07.006Z,17.20
2022-11-05T11:16:39.988Z,18.70
2022-11-05T11:22:18.966Z,18.30
2022-11-05T11:24:51.514Z,17.80
2022-11-05T11:27:26.054Z,17.50
2022-11-05T11:32:48.313Z,18.40
2022-11-05T11:35:25.288Z,18.10
2022-11-05T11:37:53.884Z,18.20
2022-11-05T11:40:21.997Z,18.10
2022-11-05T11:42:56.352Z,17.70
2022-11-05T11:45:33.675Z,17.90
2022-11-05T11:48:06.456Z,18.30
2022-11-05T11:50:42.778Z,19.00
2022-11-05T11:53:21.540Z,18.70
2022-11-05T11:56:13.945Z,18.90
2022-11-05T11:58:46.644Z,19.20
2022-11-05T12:01:25.676Z,19.10
2022-11-05T12:04:04.481Z,19.30
2022-11-05T12:09:12.875Z,18.80
2022-11-05T12:12:01.709Z,18.60
2022-11-05T12:14:34.500Z,18.10
2022-11-05T12:20:29.369Z,17.70
2022-11-05T12:23:31.463Z,18.70
2022-11-05T12:26:18.041Z,18.90
2022-11-05T12:29:16.483Z,17.30
2022-11-05T12:32:02.912Z,18.10
2022-11-05T12:35:04.529Z,17.90
2022-11-05T12:38:01.078Z,17.30
2022-11-05T12:40:39.501Z,16.80
2022-11-05T12:43:19.437Z,16.50
2022-11-05T12:45:57.499Z,16.90
2022-11-05T12:51:38.707Z,15.50
2022-11-05T12:54:43.579Z,16.20
2022-11-05T12:57:13.543Z,16.00
2022-11-05T12:59:47.893Z,16.10
2022-11-05T13:02:37.423Z,15.50
2022-11-05T13:05:06.297Z,15.70
2022-11-05T13:10:58.263Z,15.90
2022-11-05T13:13:39.752Z,15.70
2022-11-05T13:16:20.338Z,15.50
2022-11-05T13:18:53.814Z,15.30
2022-11-05T13:21:23.073Z,15.30
2022-11-05T13:23:53.379Z,14.90
2022-11-05T13:26:31.480Z,14.90
2022-11-05T13:29:10.389Z,14.40
2022-11-05T13:31:43.783Z,14.20
2022-11-05T13:34:12.376Z,13.80
2022-11-05T13:37:01.695Z,12.90
2022-11-05T13:39:53.597Z,13.10
2022-11-05T13:42:43.801Z,13.00
2022-11-05T13:45:50.538Z,12.70
2022-11-05T13:48:45.147Z,12.50
2022-11-05T13:51:37.662Z,12.10
2022-11-05T13:54:36.709Z,12.20
2022-11-05T13:57:51.671Z,12.20
2022-11-05T14:03:18.998Z,12.00
2022-11-05T14:05:56.028Z,11.80
2022-11-05T14:08:27.507Z,11.80
2022-11-05T14:13:54.662Z,11.60
2022-11-05T14:16:26.781Z,11.50
2022-11-05T14:19:18.461Z,11.40
2022-11-05T14:21:47.194Z,11.40
2022-11-05T14:24:22.751Z,11.40
2022-11-05T14:27:01.831Z,11.30
2022-11-05T14:29:48.214Z,11.10
2022-11-05T14:35:34.009Z,11.20
2022-11-05T14:38:00.848Z,11.10
2022-11-05T14:43:31.848Z,11.10
2022-11-05T14:48:53.826Z,10.90
2022-11-05T14:51:32.566Z,10.80
2022-11-05T14:54:19.803Z,10.70
2022-11-05T14:56:51.809Z,10.60
2022-11-05T14:59:24.464Z,10.60
2022-11-05T15:04:41.646Z,10.50
2022-11-05T15:09:41.021Z,10.30
2022-11-05T15:12:34.385Z,10.30
2022-11-05T15:15:22.797Z,10.20
2022-11-05T15:18:03.562Z,10.10
2022-11-05T15:23:40.958Z,10.00
2022-11-05T15:26:12.450Z,9.80
2022-11-05T15:28:51.700Z,9.80
2022-11-05T15:34:25.927Z,9.60
2022-11-05T15:37:20.154Z,9.50
2022-11-05T15:42:35.600Z,9.40
2022-11-05T15:47:48.980Z,9.30
2022-11-05T15:50:16.246Z,9.30
2022-11-05T15:52:51.317Z,9.10
2022-11-05T15:55:20.124Z,9.00
2022-11-05T15:57:51.955Z,9.10
2022-11-05T16:00:30.565Z,8.90
2022-11-05T16:03:04.882Z,8.90
2022-11-05T16:05:35.168Z,8.90
2022-11-05T16:08:03.162Z,8.80
2022-11-05T16:13:40.195Z,8.70
2022-11-05T16:16:25.043Z,8.70
2022-11-05T16:18:52.088Z,8.60
2022-11-05T16:21:20.994Z,8.60
2022-11-05T16:24:00.515Z,8.60
2022-11-05T16:27:01.769Z,8.50
2022-11-05T16:29:30.463Z,8.40
2022-11-05T16:31:59.264Z,8.40
2022-11-05T16:34:31.428Z,8.40
2022-11-05T16:36:59.671Z,8.30
2022-11-05T16:39:27.059Z,8.30
2022-11-05T16:41:53.878Z,8.30
2022-11-05T16:47:08.704Z,8.20
2022-11-05T16:52:22.296Z,8.30
2022-11-05T16:57:36.347Z,8.20
2022-11-05T17:02:53.053Z,8.20
2022-11-05T17:05:30.157Z,8.20
2022-11-05T17:07:57.750Z,8.20
2022-11-05T17:10:25.841Z,8.20
2022-11-05T17:12:53.365Z,8.30
2022-11-05T17:15:24.772Z,8.20
2022-11-05T17:17:52.708Z,8.20
2022-11-05T17:20:39.447Z,8.30
2022-11-05T17:23:07.418Z,8.20
2022-11-05T17:25:34.794Z,8.20
2022-11-05T17:28:02.388Z,8.20
2022-11-05T17:30:29.193Z,8.10
2022-11-05T17:32:56.073Z,8.10
2022-11-05T17:35:24.231Z,8.10
2022-11-05T17:37:51.530Z,8.00
2022-11-05T17:40:21.308Z,8.00
2022-11-05T17:42:48.915Z,8.00
2022-11-05T17:45:15.942Z,8.00
2022-11-05T17:47:42.827Z,7.90
2022-11-05T17:50:12.422Z,7.90
2022-11-05T17:52:39.159Z,7.90
2022-11-05T17:57:54.264Z,8.00
2022-11-05T18:03:12.009Z,7.90
2022-11-05T18:05:40.063Z,8.00
2022-11-05T18:08:08.133Z,8.00
2022-11-05T18:10:38.900Z,8.10
2022-11-05T18:13:06.509Z,8.00
2022-11-05T18:15:33.662Z,7.90
2022-11-05T18:18:00.447Z,7.90
2022-11-05T18:20:27.302Z,7.90
2022-11-05T18:22:54.323Z,7.90
2022-11-05T18:25:21.289Z,7.80
2022-11-05T18:27:48.337Z,7.90
2022-11-05T18:30:15.076Z,7.80
2022-11-05T18:32:43.389Z,7.90
2022-11-05T18:35:10.168Z,7.90
2022-11-05T18:37:38.676Z,7.80
2022-11-05T18:40:06.729Z,7.90
2022-11-05T18:42:33.627Z,7.80
2022-11-05T18:45:00.439Z,7.90
2022-11-05T18:47:27.465Z,7.90
2022-11-05T18:49:54.186Z,7.90
2022-11-05T18:52:20.906Z,7.80
2022-11-05T18:54:47.711Z,7.80
2022-11-05T18:57:14.649Z,7.80
2022-11-05T18:59:41.486Z,7.90
2022-11-05T19:02:10.857Z,7.80
2022-11-05T19:04:38.442Z,7.80
2022-11-05T19:07:05.987Z,7.90
2022-11-05T19:09:36.437Z,7.90
2022-11-05T19:12:04.467Z,7.90
2022-11-05T19:14:31.599Z,7.90
2022-11-05T19:16:59.400Z,7.90
2022-11-05T19:22:13.310Z,7.90
2022-11-05T19:27:26.816Z,7.80
2022-11-05T19:32:40.197Z,7.80
2022-11-05T19:37:53.856Z,7.80
2022-11-05T19:40:21.046Z,7.90
2022-11-05T19:42:48.000Z,7.80
2022-11-05T19:45:38.756Z,7.80
2022-11-05T19:48:01.544Z,7.80
2022-11-05T19:50:28.276Z,7.90
2022-11-05T19:52:55.053Z,7.90
2022-11-05T19:58:08.809Z,8.00
2022-11-05T20:03:22.847Z,7.80
2022-11-05T20:08:16.607Z,7.80
2022-11-05T20:10:43.387Z,7.90
2022-11-05T20:13:13.136Z,7.90
2022-11-05T20:15:42.334Z,7.80
2022-11-05T20:18:09.273Z,7.90
2022-11-05T20:20:36.191Z,7.90
2022-11-05T20:23:02.919Z,7.90
2022-11-05T20:25:29.630Z,7.90
2022-11-05T20:27:57.450Z,7.90
2022-11-05T20:30:24.188Z,7.90
2022-11-05T20:32:57.821Z,8.00
2022-11-05T20:35:24.651Z,8.00
2022-11-05T20:37:54.130Z,8.00
2022-11-05T20:40:21.083Z,8.00
2022-11-05T20:42:47.815Z,8.00
2022-11-05T20:45:14.553Z,8.00
2022-11-05T20:47:41.293Z,7.90
2022-11-05T20:50:08.800Z,7.90
2022-11-05T20:52:35.582Z,8.00
2022-11-05T20:55:02.457Z,7.90
2022-11-05T20:57:29.262Z,7.90
2022-11-05T20:59:56.017Z,7.90
2022-11-05T21:05:09.522Z,7.90
2022-11-05T21:07:36.289Z,7.80
2022-11-05T21:10:03.098Z,7.80
2022-11-05T21:12:29.803Z,7.80
2022-11-05T21:14:56.574Z,7.90
2022-11-05T21:20:10.142Z,7.90
2022-11-05T21:22:36.876Z,7.80
2022-11-05T21:25:04.192Z,7.80
2022-11-05T21:27:30.994Z,7.80
2022-11-05T21:29:57.719Z,7.80
2022-11-05T21:32:24.458Z,7.80
2022-11-05T21:34:51.195Z,7.80
2022-11-05T21:37:17.991Z,7.80
2022-11-05T21:42:31.382Z,7.70
2022-11-05T21:45:00.561Z,7.70
2022-11-05T21:47:28.204Z,7.80
2022-11-05T21:49:54.935Z,7.70
2022-11-05T21:52:21.687Z,7.70
2022-11-05T21:54:48.497Z,7.70
2022-11-05T21:57:16.946Z,7.60
2022-11-05T21:59:43.722Z,7.70
2022-11-05T22:02:13.051Z,7.70
2022-11-05T22:04:42.115Z,7.70
2022-11-05T22:07:10.976Z,7.70
2022-11-05T22:09:37.844Z,7.70
2022-11-05T22:12:05.862Z,7.70
2022-11-05T22:14:32.697Z,7.60
2022-11-05T22:16:59.885Z,7.60
2022-11-05T22:19:27.062Z,7.60
2022-11-05T22:21:54.110Z,7.60
2022-11-05T22:27:12.583Z,7.60
2022-11-05T22:32:25.938Z,7.60
2022-11-05T22:37:39.724Z,7.60
2022-11-05T22:42:53.614Z,7.50
2022-11-05T22:45:20.350Z,7.50
2022-11-05T22:47:47.052Z,7.40
2022-11-05T22:50:13.798Z,7.30
2022-11-05T22:52:40.567Z,7.50
2022-11-05T22:55:07.564Z,7.40
2022-11-05T22:57:34.312Z,7.40
2022-11-05T23:00:01.038Z,7.30
2022-11-05T23:02:27.893Z,7.30
2022-11-05T23:04:54.741Z,7.30
2022-11-05T23:07:27.081Z,7.30
2022-11-05T23:09:54.614Z,7.30
2022-11-05T23:12:33.372Z,7.60
2022-11-05T23:15:01.760Z,7.30
2022-11-05T23:17:28.788Z,7.30
2022-11-05T23:19:55.560Z,7.30
2022-11-05T23:22:30.348Z,7.30
2022-11-05T23:24:57.282Z,7.30
2022-11-05T23:27:24.381Z,7.40
2022-11-05T23:29:51.113Z,7.30
2022-11-05T23:32:17.815Z,7.40
2022-11-05T23:34:44.599Z,7.30
2022-11-05T23:37:11.348Z,7.30
2022-11-05T23:39:42.367Z,7.40
2022-11-05T23:42:10.426Z,7.30
2022-11-05T23:44:37.152Z,7.40
2022-11-05T23:47:03.941Z,7.30
2022-11-05T23:49:30.918Z,7.40
2022-11-05T23:51:57.655Z,7.40
2022-11-05T23:54:24.405Z,7.40
2022-11-05T23:56:51.155Z,7.40
2022-11-05T23:59:17.872Z,7.40
